sensor_id;sensor_type;location;lat;lon;timestamp;P1;durP1;ratioP1;P2;durP2;ratioP2
76582;SDS011;65462;52.148;7.940;2023-05-07T00:00:07;13.38;;;9.70;;
76582;SDS011;65462;52.148;7.940;2023-05-07T00:02:33;15.63;;;9.70;;
76582;SDS011;65462;52.148;7.940;2023-05-07T00:04:59;12.93;;;9.70;;
76582;SDS011;65462;52.148;7.940;2023-05-07T00:07:24;15.63;;;9.38;;
76582;SDS011;65462;52.148;7.940;2023-05-07T00:09:49;14.02;;;9.57;;
76582;SDS011;65462;52.148;7.940;2023-05-07T00:12:15;15.10;;;10.32;;
76582;SDS011;65462;52.148;7.940;2023-05-07T00:14:41;13.77;;;10.52;;
76582;SDS011;65462;52.148;7.940;2023-05-07T00:17:06;14.40;;;10.57;;
76582;SDS011;65462;52.148;7.940;2023-05-07T00:19:31;13.18;;;9.95;;
76582;SDS011;65462;52.148;7.940;2023-05-07T00:21:57;16.35;;;10.93;;
76582;SDS011;65462;52.148;7.940;2023-05-07T00:24:23;13.82;;;10.50;;
76582;SDS011;65462;52.148;7.940;2023-05-07T00:26:48;15.57;;;10.38;;
76582;SDS011;65462;52.148;7.940;2023-05-07T00:29:14;13.13;;;10.35;;
76582;SDS011;65462;52.148;7.940;2023-05-07T00:31:39;13.48;;;10.65;;
76582;SDS011;65462;52.148;7.940;2023-05-07T00:34:04;16.27;;;11.75;;
76582;SDS011;65462;52.148;7.940;2023-05-07T00:36:30;16.73;;;11.45;;
76582;SDS011;65462;52.148;7.940;2023-05-07T00:38:56;14.43;;;11.02;;
76582;SDS011;65462;52.148;7.940;2023-05-07T00:41:21;16.05;;;11.20;;
76582;SDS011;65462;52.148;7.940;2023-05-07T00:43:47;17.20;;;10.93;;
76582;SDS011;65462;52.148;7.940;2023-05-07T00:46:13;14.65;;;10.98;;
76582;SDS011;65462;52.148;7.940;2023-05-07T00:48:38;15.13;;;11.10;;
76582;SDS011;65462;52.148;7.940;2023-05-07T00:51:04;16.45;;;11.13;;
76582;SDS011;65462;52.148;7.940;2023-05-07T00:53:30;15.10;;;11.00;;
76582;SDS011;65462;52.148;7.940;2023-05-07T00:55:55;16.30;;;11.82;;
76582;SDS011;65462;52.148;7.940;2023-05-07T00:58:21;16.48;;;11.65;;
76582;SDS011;65462;52.148;7.940;2023-05-07T01:00:46;16.08;;;11.23;;
76582;SDS011;65462;52.148;7.940;2023-05-07T01:03:12;16.25;;;10.95;;
76582;SDS011;65462;52.148;7.940;2023-05-07T01:05:37;15.98;;;11.73;;
76582;SDS011;65462;52.148;7.940;2023-05-07T01:08:03;16.60;;;11.80;;
76582;SDS011;65462;52.148;7.940;2023-05-07T01:10:29;17.90;;;11.55;;
76582;SDS011;65462;52.148;7.940;2023-05-07T01:12:55;15.98;;;11.30;;
76582;SDS011;65462;52.148;7.940;2023-05-07T01:15:22;21.17;;;11.93;;
76582;SDS011;65462;52.148;7.940;2023-05-07T01:17:48;14.40;;;11.18;;
76582;SDS011;65462;52.148;7.940;2023-05-07T01:20:13;14.65;;;11.63;;
76582;SDS011;65462;52.148;7.940;2023-05-07T01:22:39;17.35;;;11.73;;
76582;SDS011;65462;52.148;7.940;2023-05-07T01:25:05;15.20;;;11.52;;
76582;SDS011;65462;52.148;7.940;2023-05-07T01:27:32;16.90;;;11.68;;
76582;SDS011;65462;52.148;7.940;2023-05-07T01:29:58;16.67;;;12.20;;
76582;SDS011;65462;52.148;7.940;2023-05-07T01:32:35;18.85;;;12.10;;
76582;SDS011;65462;52.148;7.940;2023-05-07T01:35:02;19.58;;;12.35;;
76582;SDS011;65462;52.148;7.940;2023-05-07T01:37:31;17.48;;;12.35;;
76582;SDS011;65462;52.148;7.940;2023-05-07T01:39:57;16.10;;;11.75;;
76582;SDS011;65462;52.148;7.940;2023-05-07T01:42:22;17.25;;;12.35;;
76582;SDS011;65462;52.148;7.940;2023-05-07T01:44:48;16.27;;;12.15;;
76582;SDS011;65462;52.148;7.940;2023-05-07T01:47:13;15.70;;;12.05;;
76582;SDS011;65462;52.148;7.940;2023-05-07T01:49:39;17.45;;;12.43;;
76582;SDS011;65462;52.148;7.940;2023-05-07T01:52:05;18.30;;;11.82;;
76582;SDS011;65462;52.148;7.940;2023-05-07T01:54:30;17.10;;;12.40;;
76582;SDS011;65462;52.148;7.940;2023-05-07T01:56:56;14.55;;;11.13;;
76582;SDS011;65462;52.148;7.940;2023-05-07T01:59:22;17.92;;;12.10;;
76582;SDS011;65462;52.148;7.940;2023-05-07T02:01:47;16.83;;;12.18;;
76582;SDS011;65462;52.148;7.940;2023-05-07T02:04:12;20.00;;;12.50;;
76582;SDS011;65462;52.148;7.940;2023-05-07T02:06:38;14.90;;;11.65;;
76582;SDS011;65462;52.148;7.940;2023-05-07T02:09:03;17.38;;;11.85;;
76582;SDS011;65462;52.148;7.940;2023-05-07T02:11:28;18.38;;;11.98;;
76582;SDS011;65462;52.148;7.940;2023-05-07T02:13:54;16.15;;;11.23;;
76582;SDS011;65462;52.148;7.940;2023-05-07T02:16:19;16.63;;;12.27;;
76582;SDS011;65462;52.148;7.940;2023-05-07T02:18:45;16.80;;;11.93;;
76582;SDS011;65462;52.148;7.940;2023-05-07T02:21:10;17.20;;;12.27;;
76582;SDS011;65462;52.148;7.940;2023-05-07T02:23:35;18.92;;;12.60;;
76582;SDS011;65462;52.148;7.940;2023-05-07T02:26:00;18.77;;;11.90;;
76582;SDS011;65462;52.148;7.940;2023-05-07T02:28:26;18.00;;;11.73;;
76582;SDS011;65462;52.148;7.940;2023-05-07T02:30:52;18.27;;;12.38;;
76582;SDS011;65462;52.148;7.940;2023-05-07T02:33:17;16.70;;;11.20;;
76582;SDS011;65462;52.148;7.940;2023-05-07T02:35:42;17.95;;;12.00;;
76582;SDS011;65462;52.148;7.940;2023-05-07T02:38:08;15.38;;;10.75;;
76582;SDS011;65462;52.148;7.940;2023-05-07T02:40:35;16.35;;;11.98;;
76582;SDS011;65462;52.148;7.940;2023-05-07T02:43:03;15.55;;;12.20;;
76582;SDS011;65462;52.148;7.940;2023-05-07T02:45:29;18.45;;;11.18;;
76582;SDS011;65462;52.148;7.940;2023-05-07T02:47:54;18.30;;;11.77;;
76582;SDS011;65462;52.148;7.940;2023-05-07T02:50:20;16.42;;;10.95;;
76582;SDS011;65462;52.148;7.940;2023-05-07T02:52:45;17.63;;;11.68;;
76582;SDS011;65462;52.148;7.940;2023-05-07T02:55:10;17.42;;;11.85;;
76582;SDS011;65462;52.148;7.940;2023-05-07T02:57:36;17.73;;;12.45;;
76582;SDS011;65462;52.148;7.940;2023-05-07T03:00:09;17.90;;;11.88;;
76582;SDS011;65462;52.148;7.940;2023-05-07T03:02:37;15.40;;;11.63;;
76582;SDS011;65462;52.148;7.940;2023-05-07T03:05:03;16.02;;;11.40;;
76582;SDS011;65462;52.148;7.940;2023-05-07T03:07:28;18.88;;;12.98;;
76582;SDS011;65462;52.148;7.940;2023-05-07T03:09:53;17.10;;;12.18;;
76582;SDS011;65462;52.148;7.940;2023-05-07T03:12:19;16.90;;;11.30;;
76582;SDS011;65462;52.148;7.940;2023-05-07T03:14:45;18.23;;;12.32;;
76582;SDS011;65462;52.148;7.940;2023-05-07T03:17:10;15.13;;;11.65;;
76582;SDS011;65462;52.148;7.940;2023-05-07T03:19:35;17.33;;;12.43;;
76582;SDS011;65462;52.148;7.940;2023-05-07T03:22:01;17.92;;;11.95;;
76582;SDS011;65462;52.148;7.940;2023-05-07T03:24:26;17.73;;;12.32;;
76582;SDS011;65462;52.148;7.940;2023-05-07T03:26:51;16.65;;;11.13;;
76582;SDS011;65462;52.148;7.940;2023-05-07T03:29:17;19.05;;;13.18;;
76582;SDS011;65462;52.148;7.940;2023-05-07T03:31:42;17.23;;;12.80;;
76582;SDS011;65462;52.148;7.940;2023-05-07T03:34:07;21.38;;;12.98;;
76582;SDS011;65462;52.148;7.940;2023-05-07T03:36:33;17.70;;;12.52;;
76582;SDS011;65462;52.148;7.940;2023-05-07T03:38:58;18.20;;;12.48;;
76582;SDS011;65462;52.148;7.940;2023-05-07T03:41:23;19.20;;;13.43;;
76582;SDS011;65462;52.148;7.940;2023-05-07T03:43:48;18.30;;;12.82;;
76582;SDS011;65462;52.148;7.940;2023-05-07T03:46:14;18.02;;;12.00;;
76582;SDS011;65462;52.148;7.940;2023-05-07T03:48:39;17.33;;;12.25;;
76582;SDS011;65462;52.148;7.940;2023-05-07T03:51:04;18.40;;;12.95;;
76582;SDS011;65462;52.148;7.940;2023-05-07T03:53:30;18.05;;;12.15;;
76582;SDS011;65462;52.148;7.940;2023-05-07T03:55:55;16.80;;;12.57;;
76582;SDS011;65462;52.148;7.940;2023-05-07T03:58:20;19.38;;;12.15;;
76582;SDS011;65462;52.148;7.940;2023-05-07T04:00:45;17.38;;;12.60;;
76582;SDS011;65462;52.148;7.940;2023-05-07T04:03:11;18.45;;;12.75;;
76582;SDS011;65462;52.148;7.940;2023-05-07T04:05:36;17.63;;;12.73;;
76582;SDS011;65462;52.148;7.940;2023-05-07T04:08:01;19.90;;;13.02;;
76582;SDS011;65462;52.148;7.940;2023-05-07T04:10:27;17.02;;;12.30;;
76582;SDS011;65462;52.148;7.940;2023-05-07T04:12:54;16.90;;;12.30;;
76582;SDS011;65462;52.148;7.940;2023-05-07T04:15:20;21.40;;;12.63;;
76582;SDS011;65462;52.148;7.940;2023-05-07T04:17:45;18.10;;;13.00;;
76582;SDS011;65462;52.148;7.940;2023-05-07T04:20:13;18.35;;;12.43;;
76582;SDS011;65462;52.148;7.940;2023-05-07T04:22:40;19.48;;;13.57;;
76582;SDS011;65462;52.148;7.940;2023-05-07T04:25:05;19.13;;;12.95;;
76582;SDS011;65462;52.148;7.940;2023-05-07T04:27:31;21.60;;;13.05;;
76582;SDS011;65462;52.148;7.940;2023-05-07T04:29:57;16.95;;;13.10;;
76582;SDS011;65462;52.148;7.940;2023-05-07T04:32:22;17.40;;;12.45;;
76582;SDS011;65462;52.148;7.940;2023-05-07T04:34:49;17.52;;;12.38;;
76582;SDS011;65462;52.148;7.940;2023-05-07T04:37:15;18.45;;;12.63;;
76582;SDS011;65462;52.148;7.940;2023-05-07T04:39:40;19.80;;;13.32;;
76582;SDS011;65462;52.148;7.940;2023-05-07T04:42:05;18.95;;;12.98;;
76582;SDS011;65462;52.148;7.940;2023-05-07T04:44:33;17.35;;;12.18;;
76582;SDS011;65462;52.148;7.940;2023-05-07T04:46:59;16.95;;;12.15;;
76582;SDS011;65462;52.148;7.940;2023-05-07T04:49:25;17.92;;;12.85;;
76582;SDS011;65462;52.148;7.940;2023-05-07T04:51:50;17.73;;;12.95;;
76582;SDS011;65462;52.148;7.940;2023-05-07T04:54:15;18.60;;;12.48;;
76582;SDS011;65462;52.148;7.940;2023-05-07T04:56:41;19.80;;;13.40;;
76582;SDS011;65462;52.148;7.940;2023-05-07T04:59:06;18.60;;;13.27;;
76582;SDS011;65462;52.148;7.940;2023-05-07T05:01:31;18.55;;;13.02;;
76582;SDS011;65462;52.148;7.940;2023-05-07T05:03:57;20.02;;;13.10;;
76582;SDS011;65462;52.148;7.940;2023-05-07T05:06:22;17.95;;;13.35;;
76582;SDS011;65462;52.148;7.940;2023-05-07T05:08:47;18.52;;;12.55;;
76582;SDS011;65462;52.148;7.940;2023-05-07T05:11:12;18.42;;;13.18;;
76582;SDS011;65462;52.148;7.940;2023-05-07T05:13:38;21.70;;;13.00;;
76582;SDS011;65462;52.148;7.940;2023-05-07T05:16:03;17.92;;;12.98;;
76582;SDS011;65462;52.148;7.940;2023-05-07T05:18:29;17.60;;;12.20;;
76582;SDS011;65462;52.148;7.940;2023-05-07T05:20:54;19.73;;;13.40;;
76582;SDS011;65462;52.148;7.940;2023-05-07T05:23:19;19.00;;;13.00;;
76582;SDS011;65462;52.148;7.940;2023-05-07T05:25:45;20.38;;;12.60;;
76582;SDS011;65462;52.148;7.940;2023-05-07T05:28:10;20.02;;;13.27;;
76582;SDS011;65462;52.148;7.940;2023-05-07T05:30:36;19.38;;;13.38;;
76582;SDS011;65462;52.148;7.940;2023-05-07T05:33:01;18.42;;;13.13;;
76582;SDS011;65462;52.148;7.940;2023-05-07T05:35:26;16.90;;;12.73;;
76582;SDS011;65462;52.148;7.940;2023-05-07T05:37:52;20.35;;;13.68;;
76582;SDS011;65462;52.148;7.940;2023-05-07T05:40:17;20.95;;;13.98;;
76582;SDS011;65462;52.148;7.940;2023-05-07T05:42:42;19.75;;;13.73;;
76582;SDS011;65462;52.148;7.940;2023-05-07T05:45:08;21.42;;;14.27;;
76582;SDS011;65462;52.148;7.940;2023-05-07T05:47:33;19.13;;;14.07;;
76582;SDS011;65462;52.148;7.940;2023-05-07T05:49:59;19.65;;;13.90;;
76582;SDS011;65462;52.148;7.940;2023-05-07T05:52:24;19.77;;;13.57;;
76582;SDS011;65462;52.148;7.940;2023-05-07T05:54:50;22.13;;;14.27;;
76582;SDS011;65462;52.148;7.940;2023-05-07T05:57:15;20.48;;;13.93;;
76582;SDS011;65462;52.148;7.940;2023-05-07T05:59:40;22.00;;;14.95;;
76582;SDS011;65462;52.148;7.940;2023-05-07T06:02:06;19.10;;;14.15;;
76582;SDS011;65462;52.148;7.940;2023-05-07T06:04:31;22.48;;;15.18;;
76582;SDS011;65462;52.148;7.940;2023-05-07T06:06:57;23.40;;;14.40;;
76582;SDS011;65462;52.148;7.940;2023-05-07T06:09:22;21.75;;;14.05;;
76582;SDS011;65462;52.148;7.940;2023-05-07T06:11:47;19.80;;;13.85;;
76582;SDS011;65462;52.148;7.940;2023-05-07T06:14:12;20.30;;;14.15;;
76582;SDS011;65462;52.148;7.940;2023-05-07T06:16:38;21.70;;;14.20;;
76582;SDS011;65462;52.148;7.940;2023-05-07T06:19:03;22.42;;;13.68;;
76582;SDS011;65462;52.148;7.940;2023-05-07T06:21:28;20.63;;;13.10;;
76582;SDS011;65462;52.148;7.940;2023-05-07T06:23:54;19.55;;;13.50;;
76582;SDS011;65462;52.148;7.940;2023-05-07T06:26:19;19.15;;;13.88;;
76582;SDS011;65462;52.148;7.940;2023-05-07T06:28:45;19.10;;;13.07;;
76582;SDS011;65462;52.148;7.940;2023-05-07T06:31:11;19.95;;;13.80;;
76582;SDS011;65462;52.148;7.940;2023-05-07T06:33:41;18.58;;;13.85;;
76582;SDS011;65462;52.148;7.940;2023-05-07T06:36:08;20.05;;;12.93;;
76582;SDS011;65462;52.148;7.940;2023-05-07T06:38:33;18.23;;;13.27;;
76582;SDS011;65462;52.148;7.940;2023-05-07T06:40:59;18.25;;;13.65;;
76582;SDS011;65462;52.148;7.940;2023-05-07T06:43:24;19.60;;;13.27;;
76582;SDS011;65462;52.148;7.940;2023-05-07T06:45:49;21.70;;;13.85;;
76582;SDS011;65462;52.148;7.940;2023-05-07T06:48:14;19.80;;;13.68;;
76582;SDS011;65462;52.148;7.940;2023-05-07T06:50:40;22.10;;;13.63;;
76582;SDS011;65462;52.148;7.940;2023-05-07T06:53:06;21.98;;;13.57;;
76582;SDS011;65462;52.148;7.940;2023-05-07T06:55:32;20.30;;;13.60;;
76582;SDS011;65462;52.148;7.940;2023-05-07T06:57:57;22.73;;;14.52;;
76582;SDS011;65462;52.148;7.940;2023-05-07T07:00:25;19.63;;;13.95;;
76582;SDS011;65462;52.148;7.940;2023-05-07T07:02:51;21.63;;;14.20;;
76582;SDS011;65462;52.148;7.940;2023-05-07T07:05:16;20.95;;;13.68;;
76582;SDS011;65462;52.148;7.940;2023-05-07T07:07:41;21.55;;;14.15;;
76582;SDS011;65462;52.148;7.940;2023-05-07T07:10:07;20.25;;;14.13;;
76582;SDS011;65462;52.148;7.940;2023-05-07T07:12:32;22.05;;;13.73;;
76582;SDS011;65462;52.148;7.940;2023-05-07T07:14:58;19.27;;;13.63;;
76582;SDS011;65462;52.148;7.940;2023-05-07T07:17:23;19.80;;;13.32;;
76582;SDS011;65462;52.148;7.940;2023-05-07T07:19:48;18.58;;;13.20;;
76582;SDS011;65462;52.148;7.940;2023-05-07T07:22:13;19.95;;;13.50;;
76582;SDS011;65462;52.148;7.940;2023-05-07T07:24:39;20.55;;;14.18;;
76582;SDS011;65462;52.148;7.940;2023-05-07T07:27:04;19.80;;;13.20;;
76582;SDS011;65462;52.148;7.940;2023-05-07T07:29:30;20.08;;;12.48;;
76582;SDS011;65462;52.148;7.940;2023-05-07T07:31:55;20.13;;;13.38;;
76582;SDS011;65462;52.148;7.940;2023-05-07T07:34:21;19.35;;;13.23;;
76582;SDS011;65462;52.148;7.940;2023-05-07T07:36:46;19.40;;;13.02;;
76582;SDS011;65462;52.148;7.940;2023-05-07T07:39:12;21.30;;;13.27;;
76582;SDS011;65462;52.148;7.940;2023-05-07T07:41:37;19.25;;;13.60;;
76582;SDS011;65462;52.148;7.940;2023-05-07T07:44:03;21.50;;;13.77;;
76582;SDS011;65462;52.148;7.940;2023-05-07T07:46:29;20.27;;;12.88;;
76582;SDS011;65462;52.148;7.940;2023-05-07T07:48:54;18.48;;;12.75;;
76582;SDS011;65462;52.148;7.940;2023-05-07T07:51:20;19.65;;;13.00;;
76582;SDS011;65462;52.148;7.940;2023-05-07T07:53:45;18.58;;;12.57;;
76582;SDS011;65462;52.148;7.940;2023-05-07T07:56:10;20.17;;;13.05;;
76582;SDS011;65462;52.148;7.940;2023-05-07T07:58:37;18.38;;;12.70;;
76582;SDS011;65462;52.148;7.940;2023-05-07T08:01:02;20.67;;;12.55;;
76582;SDS011;65462;52.148;7.940;2023-05-07T08:03:28;18.77;;;12.52;;
76582;SDS011;65462;52.148;7.940;2023-05-07T08:05:56;17.90;;;12.77;;
76582;SDS011;65462;52.148;7.940;2023-05-07T08:08:22;17.25;;;12.27;;
76582;SDS011;65462;52.148;7.940;2023-05-07T08:10:47;19.25;;;12.80;;
76582;SDS011;65462;52.148;7.940;2023-05-07T08:13:14;19.58;;;13.15;;
76582;SDS011;65462;52.148;7.940;2023-05-07T08:15:40;17.08;;;12.55;;
76582;SDS011;65462;52.148;7.940;2023-05-07T08:18:05;17.38;;;12.00;;
76582;SDS011;65462;52.148;7.940;2023-05-07T08:20:30;21.42;;;13.15;;
76582;SDS011;65462;52.148;7.940;2023-05-07T08:22:56;19.67;;;12.55;;
76582;SDS011;65462;52.148;7.940;2023-05-07T08:25:21;18.17;;;12.45;;
76582;SDS011;65462;52.148;7.940;2023-05-07T08:27:47;18.05;;;11.85;;
76582;SDS011;65462;52.148;7.940;2023-05-07T08:30:12;17.83;;;11.95;;
76582;SDS011;65462;52.148;7.940;2023-05-07T08:32:38;17.45;;;12.32;;
76582;SDS011;65462;52.148;7.940;2023-05-07T08:35:03;19.77;;;12.18;;
76582;SDS011;65462;52.148;7.940;2023-05-07T08:37:29;16.45;;;11.40;;
76582;SDS011;65462;52.148;7.940;2023-05-07T08:39:54;19.48;;;11.90;;
76582;SDS011;65462;52.148;7.940;2023-05-07T08:42:19;15.98;;;11.18;;
76582;SDS011;65462;52.148;7.940;2023-05-07T08:44:48;16.70;;;10.48;;
76582;SDS011;65462;52.148;7.940;2023-05-07T08:47:18;16.17;;;10.90;;
76582;SDS011;65462;52.148;7.940;2023-05-07T08:49:44;17.38;;;11.75;;
76582;SDS011;65462;52.148;7.940;2023-05-07T08:52:11;15.60;;;10.93;;
76582;SDS011;65462;52.148;7.940;2023-05-07T08:54:37;15.35;;;10.70;;
76582;SDS011;65462;52.148;7.940;2023-05-07T08:57:03;14.90;;;11.00;;
76582;SDS011;65462;52.148;7.940;2023-05-07T08:59:28;15.18;;;10.43;;
76582;SDS011;65462;52.148;7.940;2023-05-07T09:01:53;14.70;;;10.23;;
76582;SDS011;65462;52.148;7.940;2023-05-07T09:04:19;15.27;;;10.07;;
76582;SDS011;65462;52.148;7.940;2023-05-07T09:06:44;13.30;;;10.18;;
76582;SDS011;65462;52.148;7.940;2023-05-07T09:09:09;14.70;;;10.27;;
76582;SDS011;65462;52.148;7.940;2023-05-07T09:11:39;12.88;;;9.52;;
76582;SDS011;65462;52.148;7.940;2023-05-07T09:14:05;13.05;;;9.57;;
76582;SDS011;65462;52.148;7.940;2023-05-07T09:16:30;14.48;;;10.07;;
76582;SDS011;65462;52.148;7.940;2023-05-07T09:18:57;16.30;;;10.38;;
76582;SDS011;65462;52.148;7.940;2023-05-07T09:21:24;14.00;;;10.02;;
76582;SDS011;65462;52.148;7.940;2023-05-07T09:23:53;12.95;;;9.50;;
76582;SDS011;65462;52.148;7.940;2023-05-07T09:26:23;13.38;;;9.73;;
76582;SDS011;65462;52.148;7.940;2023-05-07T09:28:49;13.50;;;9.77;;
76582;SDS011;65462;52.148;7.940;2023-05-07T09:31:15;13.35;;;9.23;;
76582;SDS011;65462;52.148;7.940;2023-05-07T09:33:40;15.13;;;9.23;;
76582;SDS011;65462;52.148;7.940;2023-05-07T09:36:06;14.10;;;9.43;;
76582;SDS011;65462;52.148;7.940;2023-05-07T09:38:34;13.10;;;9.13;;
76582;SDS011;65462;52.148;7.940;2023-05-07T09:41:09;13.40;;;8.75;;
76582;SDS011;65462;52.148;7.940;2023-05-07T09:43:37;11.07;;;8.20;;
76582;SDS011;65462;52.148;7.940;2023-05-07T09:46:14;11.10;;;8.45;;
76582;SDS011;65462;52.148;7.940;2023-05-07T09:48:42;11.82;;;8.85;;
76582;SDS011;65462;52.148;7.940;2023-05-07T09:53:40;11.25;;;8.00;;
76582;SDS011;65462;52.148;7.940;2023-05-07T09:56:07;10.93;;;8.23;;
76582;SDS011;65462;52.148;7.940;2023-05-07T09:58:32;14.38;;;7.95;;
76582;SDS011;65462;52.148;7.940;2023-05-07T10:01:01;10.63;;;7.38;;
76582;SDS011;65462;52.148;7.940;2023-05-07T10:03:27;10.40;;;7.70;;
76582;SDS011;65462;52.148;7.940;2023-05-07T10:05:56;9.70;;;7.38;;
76582;SDS011;65462;52.148;7.940;2023-05-07T10:08:23;10.20;;;7.47;;
76582;SDS011;65462;52.148;7.940;2023-05-07T10:10:49;11.20;;;7.80;;
76582;SDS011;65462;52.148;7.940;2023-05-07T10:13:15;10.15;;;7.70;;
76582;SDS011;65462;52.148;7.940;2023-05-07T10:15:42;11.38;;;7.45;;
76582;SDS011;65462;52.148;7.940;2023-05-07T10:18:07;13.68;;;8.52;;
76582;SDS011;65462;52.148;7.940;2023-05-07T10:20:33;9.93;;;7.70;;
76582;SDS011;65462;52.148;7.940;2023-05-07T10:23:02;9.90;;;7.57;;
76582;SDS011;65462;52.148;7.940;2023-05-07T10:25:29;9.82;;;6.75;;
76582;SDS011;65462;52.148;7.940;2023-05-07T10:27:57;8.75;;;6.88;;
76582;SDS011;65462;52.148;7.940;2023-05-07T10:33:43;8.85;;;6.53;;
76582;SDS011;65462;52.148;7.940;2023-05-07T10:36:11;9.00;;;6.95;;
76582;SDS011;65462;52.148;7.940;2023-05-07T10:38:37;8.60;;;6.57;;
76582;SDS011;65462;52.148;7.940;2023-05-07T10:41:04;9.60;;;6.57;;
76582;SDS011;65462;52.148;7.940;2023-05-07T10:43:38;8.15;;;6.05;;
76582;SDS011;65462;52.148;7.940;2023-05-07T10:46:16;8.23;;;6.55;;
76582;SDS011;65462;52.148;7.940;2023-05-07T10:51:31;8.20;;;5.85;;
76582;SDS011;65462;52.148;7.940;2023-05-07T10:56:35;7.53;;;6.05;;
76582;SDS011;65462;52.148;7.940;2023-05-07T11:04:31;8.90;;;6.18;;
76582;SDS011;65462;52.148;7.940;2023-05-07T11:15:05;7.40;;;5.07;;
76582;SDS011;65462;52.148;7.940;2023-05-07T11:17:53;8.57;;;5.57;;
76582;SDS011;65462;52.148;7.940;2023-05-07T11:20:19;8.20;;;5.78;;
76582;SDS011;65462;52.148;7.940;2023-05-07T11:22:45;9.95;;;5.38;;
76582;SDS011;65462;52.148;7.940;2023-05-07T11:25:10;8.52;;;5.50;;
76582;SDS011;65462;52.148;7.940;2023-05-07T11:27:41;7.57;;;5.47;;
76582;SDS011;65462;52.148;7.940;2023-05-07T11:30:07;7.20;;;5.18;;
76582;SDS011;65462;52.148;7.940;2023-05-07T11:32:33;7.30;;;5.53;;
76582;SDS011;65462;52.148;7.940;2023-05-07T11:34:59;10.52;;;5.47;;
76582;SDS011;65462;52.148;7.940;2023-05-07T11:37:25;7.18;;;5.35;;
76582;SDS011;65462;52.148;7.940;2023-05-07T11:40:02;6.22;;;5.18;;
76582;SDS011;65462;52.148;7.940;2023-05-07T11:42:35;9.27;;;5.80;;
76582;SDS011;65462;52.148;7.940;2023-05-07T11:45:05;8.50;;;5.22;;
76582;SDS011;65462;52.148;7.940;2023-05-07T11:47:32;7.05;;;5.10;;
76582;SDS011;65462;52.148;7.940;2023-05-07T11:50:03;7.85;;;5.40;;
76582;SDS011;65462;52.148;7.940;2023-05-07T11:52:30;6.95;;;4.82;;
76582;SDS011;65462;52.148;7.940;2023-05-07T11:54:56;6.00;;;4.97;;
76582;SDS011;65462;52.148;7.940;2023-05-07T11:57:23;6.90;;;5.35;;
76582;SDS011;65462;52.148;7.940;2023-05-07T11:59:53;6.68;;;5.43;;
76582;SDS011;65462;52.148;7.940;2023-05-07T12:02:19;6.40;;;4.50;;
76582;SDS011;65462;52.148;7.940;2023-05-07T12:04:44;6.80;;;4.90;;
76582;SDS011;65462;52.148;7.940;2023-05-07T12:07:13;6.18;;;4.90;;
76582;SDS011;65462;52.148;7.940;2023-05-07T12:09:39;6.30;;;4.88;;
76582;SDS011;65462;52.148;7.940;2023-05-07T12:12:05;7.25;;;5.15;;
76582;SDS011;65462;52.148;7.940;2023-05-07T12:14:30;6.63;;;5.40;;
76582;SDS011;65462;52.148;7.940;2023-05-07T12:16:56;5.85;;;4.78;;
76582;SDS011;65462;52.148;7.940;2023-05-07T12:19:22;7.35;;;5.03;;
76582;SDS011;65462;52.148;7.940;2023-05-07T12:21:47;6.95;;;4.72;;
76582;SDS011;65462;52.148;7.940;2023-05-07T12:24:14;6.47;;;5.13;;
76582;SDS011;65462;52.148;7.940;2023-05-07T12:26:39;6.97;;;5.35;;
76582;SDS011;65462;52.148;7.940;2023-05-07T12:29:05;6.18;;;4.93;;
76582;SDS011;65462;52.148;7.940;2023-05-07T12:31:31;6.47;;;5.00;;
76582;SDS011;65462;52.148;7.940;2023-05-07T12:33:56;6.88;;;5.00;;
76582;SDS011;65462;52.148;7.940;2023-05-07T12:36:22;6.47;;;4.35;;
76582;SDS011;65462;52.148;7.940;2023-05-07T12:38:48;5.97;;;4.90;;
76582;SDS011;65462;52.148;7.940;2023-05-07T12:41:15;6.63;;;5.43;;
76582;SDS011;65462;52.148;7.940;2023-05-07T12:43:42;5.65;;;4.25;;
76582;SDS011;65462;52.148;7.940;2023-05-07T12:46:09;5.60;;;4.32;;
76582;SDS011;65462;52.148;7.940;2023-05-07T12:48:37;5.47;;;4.05;;
76582;SDS011;65462;52.148;7.940;2023-05-07T12:51:03;5.65;;;4.55;;
76582;SDS011;65462;52.148;7.940;2023-05-07T12:53:31;9.32;;;4.90;;
76582;SDS011;65462;52.148;7.940;2023-05-07T12:55:57;6.05;;;4.20;;
76582;SDS011;65462;52.148;7.940;2023-05-07T13:00:58;7.00;;;4.70;;
76582;SDS011;65462;52.148;7.940;2023-05-07T13:05:51;4.80;;;3.80;;
76582;SDS011;65462;52.148;7.940;2023-05-07T13:08:23;6.65;;;4.32;;
76582;SDS011;65462;52.148;7.940;2023-05-07T13:10:59;6.43;;;3.67;;
76582;SDS011;65462;52.148;7.940;2023-05-07T13:13:30;5.22;;;3.65;;
76582;SDS011;65462;52.148;7.940;2023-05-07T13:15:56;4.20;;;3.60;;
76582;SDS011;65462;52.148;7.940;2023-05-07T13:18:21;4.65;;;3.80;;
76582;SDS011;65462;52.148;7.940;2023-05-07T13:20:46;5.07;;;3.88;;
76582;SDS011;65462;52.148;7.940;2023-05-07T13:23:12;5.38;;;4.32;;
76582;SDS011;65462;52.148;7.940;2023-05-07T13:25:37;6.43;;;4.22;;
76582;SDS011;65462;52.148;7.940;2023-05-07T13:28:02;5.57;;;4.00;;
76582;SDS011;65462;52.148;7.940;2023-05-07T13:30:29;6.88;;;4.03;;
76582;SDS011;65462;52.148;7.940;2023-05-07T13:32:55;7.85;;;4.00;;
76582;SDS011;65462;52.148;7.940;2023-05-07T13:35:20;5.80;;;3.70;;
76582;SDS011;65462;52.148;7.940;2023-05-07T13:37:46;4.28;;;3.40;;
76582;SDS011;65462;52.148;7.940;2023-05-07T13:40:13;4.82;;;3.85;;
76582;SDS011;65462;52.148;7.940;2023-05-07T13:42:38;5.68;;;4.20;;
76582;SDS011;65462;52.148;7.940;2023-05-07T13:45:03;4.57;;;3.65;;
76582;SDS011;65462;52.148;7.940;2023-05-07T13:47:30;5.90;;;3.90;;
76582;SDS011;65462;52.148;7.940;2023-05-07T13:49:55;5.65;;;4.20;;
76582;SDS011;65462;52.148;7.940;2023-05-07T13:52:21;5.10;;;3.67;;
76582;SDS011;65462;52.148;7.940;2023-05-07T13:54:46;4.35;;;3.40;;
76582;SDS011;65462;52.148;7.940;2023-05-07T13:57:11;4.55;;;3.33;;
76582;SDS011;65462;52.148;7.940;2023-05-07T13:59:36;5.28;;;3.38;;
76582;SDS011;65462;52.148;7.940;2023-05-07T14:02:02;5.63;;;3.28;;
76582;SDS011;65462;52.148;7.940;2023-05-07T14:04:27;4.78;;;3.78;;
76582;SDS011;65462;52.148;7.940;2023-05-07T14:06:52;5.28;;;3.65;;
76582;SDS011;65462;52.148;7.940;2023-05-07T14:09:17;4.65;;;3.30;;
76582;SDS011;65462;52.148;7.940;2023-05-07T14:11:43;4.75;;;3.60;;
76582;SDS011;65462;52.148;7.940;2023-05-07T14:14:08;4.30;;;3.35;;
76582;SDS011;65462;52.148;7.940;2023-05-07T14:16:37;4.32;;;3.22;;
76582;SDS011;65462;52.148;7.940;2023-05-07T14:19:02;4.30;;;3.42;;
76582;SDS011;65462;52.148;7.940;2023-05-07T14:21:28;5.00;;;3.15;;
76582;SDS011;65462;52.148;7.940;2023-05-07T14:23:53;4.47;;;3.03;;
76582;SDS011;65462;52.148;7.940;2023-05-07T14:26:18;4.68;;;3.45;;
76582;SDS011;65462;52.148;7.940;2023-05-07T14:28:44;3.78;;;3.00;;
76582;SDS011;65462;52.148;7.940;2023-05-07T14:31:11;4.30;;;3.28;;
76582;SDS011;65462;52.148;7.940;2023-05-07T14:33:37;3.40;;;3.03;;
76582;SDS011;65462;52.148;7.940;2023-05-07T14:36:02;3.60;;;2.95;;
76582;SDS011;65462;52.148;7.940;2023-05-07T14:38:28;5.93;;;3.03;;
76582;SDS011;65462;52.148;7.940;2023-05-07T14:40:53;6.13;;;3.42;;
76582;SDS011;65462;52.148;7.940;2023-05-07T14:43:20;3.55;;;2.88;;
76582;SDS011;65462;52.148;7.940;2023-05-07T14:45:46;4.68;;;3.50;;
76582;SDS011;65462;52.148;7.940;2023-05-07T14:48:11;3.50;;;2.75;;
76582;SDS011;65462;52.148;7.940;2023-05-07T14:50:40;6.80;;;3.60;;
76582;SDS011;65462;52.148;7.940;2023-05-07T14:53:08;3.97;;;2.97;;